sensor_id;sensor_type;location;lat;lon;timestamp;P1;durP1;ratioP1;P2;durP2;ratioP2
74715;SDS011;63234;37.558;127.058;2023-12-04T00:02:21;4.63;;;2.78;;
74715;SDS011;63234;37.558;127.058;2023-12-04T00:04:47;4.38;;;3.38;;
74715;SDS011;63234;37.558;127.058;2023-12-04T00:07:12;12.82;;;5.78;;
74715;SDS011;63234;37.558;127.058;2023-12-04T00:09:37;4.35;;;3.22;;
74715;SDS011;63234;37.558;127.058;2023-12-04T00:12:03;8.25;;;3.63;;
74715;SDS011;63234;37.558;127.058;2023-12-04T00:14:28;5.30;;;3.65;;
74715;SDS011;63234;37.558;127.058;2023-12-04T00:16:54;12.50;;;4.55;;
74715;SDS011;63234;37.558;127.058;2023-12-04T00:19:19;5.20;;;3.58;;
74715;SDS011;63234;37.558;127.058;2023-12-04T00:21:45;11.50;;;3.78;;
74715;SDS011;63234;37.558;127.058;2023-12-04T00:24:10;5.45;;;3.50;;
74715;SDS011;63234;37.558;127.058;2023-12-04T00:26:35;6.35;;;2.08;;
74715;SDS011;63234;37.558;127.058;2023-12-04T00:29:01;6.57;;;4.00;;
74715;SDS011;63234;37.558;127.058;2023-12-04T00:31:26;3.90;;;3.15;;
74715;SDS011;63234;37.558;127.058;2023-12-04T00:33:51;4.57;;;2.95;;
74715;SDS011;63234;37.558;127.058;2023-12-04T00:36:16;2.38;;;2.17;;
74715;SDS011;63234;37.558;127.058;2023-12-04T00:38:43;7.13;;;3.78;;
74715;SDS011;63234;37.558;127.058;2023-12-04T00:41:08;19.13;;;4.35;;
74715;SDS011;63234;37.558;127.058;2023-12-04T00:43:33;7.18;;;3.75;;
74715;SDS011;63234;37.558;127.058;2023-12-04T00:45:58;6.32;;;3.63;;
74715;SDS011;63234;37.558;127.058;2023-12-04T00:48:24;5.93;;;4.60;;
74715;SDS011;63234;37.558;127.058;2023-12-04T00:50:50;6.40;;;3.45;;
74715;SDS011;63234;37.558;127.058;2023-12-04T00:53:16;12.20;;;4.28;;
74715;SDS011;63234;37.558;127.058;2023-12-04T00:55:41;2.53;;;2.28;;
74715;SDS011;63234;37.558;127.058;2023-12-04T00:58:07;4.32;;;3.47;;
74715;SDS011;63234;37.558;127.058;2023-12-04T01:00:32;4.88;;;2.80;;
74715;SDS011;63234;37.558;127.058;2023-12-04T01:02:57;8.00;;;4.97;;
74715;SDS011;63234;37.558;127.058;2023-12-04T01:05:23;2.75;;;2.55;;
74715;SDS011;63234;37.558;127.058;2023-12-04T01:07:48;8.32;;;2.95;;
74715;SDS011;63234;37.558;127.058;2023-12-04T01:10:13;5.70;;;3.13;;
74715;SDS011;63234;37.558;127.058;2023-12-04T01:12:39;4.10;;;3.42;;
74715;SDS011;63234;37.558;127.058;2023-12-04T01:15:04;5.80;;;4.15;;
74715;SDS011;63234;37.558;127.058;2023-12-04T01:17:30;3.72;;;2.58;;
74715;SDS011;63234;37.558;127.058;2023-12-04T01:19:55;3.47;;;2.85;;
74715;SDS011;63234;37.558;127.058;2023-12-04T01:22:22;3.10;;;2.80;;
74715;SDS011;63234;37.558;127.058;2023-12-04T01:24:47;8.45;;;2.85;;
74715;SDS011;63234;37.558;127.058;2023-12-04T01:27:13;2.88;;;2.65;;
74715;SDS011;63234;37.558;127.058;2023-12-04T01:29:38;7.43;;;5.22;;
74715;SDS011;63234;37.558;127.058;2023-12-04T01:32:04;1.95;;;1.77;;
74715;SDS011;63234;37.558;127.058;2023-12-04T01:34:29;2.00;;;1.90;;
74715;SDS011;63234;37.558;127.058;2023-12-04T01:36:55;6.65;;;3.25;;
74715;SDS011;63234;37.558;127.058;2023-12-04T01:39:20;4.78;;;3.05;;
74715;SDS011;63234;37.558;127.058;2023-12-04T01:41:45;3.58;;;3.13;;
74715;SDS011;63234;37.558;127.058;2023-12-04T01:44:11;5.00;;;2.65;;
74715;SDS011;63234;37.558;127.058;2023-12-04T01:46:36;2.92;;;2.30;;
74715;SDS011;63234;37.558;127.058;2023-12-04T01:49:02;3.38;;;3.08;;
74715;SDS011;63234;37.558;127.058;2023-12-04T01:51:28;9.30;;;2.67;;
74715;SDS011;63234;37.558;127.058;2023-12-04T01:53:55;13.27;;;3.75;;
74715;SDS011;63234;37.558;127.058;2023-12-04T01:56:22;5.40;;;3.45;;
74715;SDS011;63234;37.558;127.058;2023-12-04T01:58:47;4.07;;;2.90;;
74715;SDS011;63234;37.558;127.058;2023-12-04T02:01:13;3.88;;;2.20;;
74715;SDS011;63234;37.558;127.058;2023-12-04T02:03:38;4.28;;;3.05;;
74715;SDS011;63234;37.558;127.058;2023-12-04T02:06:05;1.77;;;1.67;;
74715;SDS011;63234;37.558;127.058;2023-12-04T02:08:31;1.95;;;1.30;;
74715;SDS011;63234;37.558;127.058;2023-12-04T02:10:57;2.65;;;2.40;;
74715;SDS011;63234;37.558;127.058;2023-12-04T02:13:24;2.80;;;2.15;;
74715;SDS011;63234;37.558;127.058;2023-12-04T02:15:50;3.67;;;3.30;;
74715;SDS011;63234;37.558;127.058;2023-12-04T02:18:18;2.83;;;2.63;;
74715;SDS011;63234;37.558;127.058;2023-12-04T02:20:44;4.30;;;2.53;;
74715;SDS011;63234;37.558;127.058;2023-12-04T02:23:09;3.35;;;2.47;;
74715;SDS011;63234;37.558;127.058;2023-12-04T02:25:35;2.95;;;1.58;;
74715;SDS011;63234;37.558;127.058;2023-12-04T02:28:01;2.00;;;1.73;;
74715;SDS011;63234;37.558;127.058;2023-12-04T02:30:29;6.57;;;3.30;;
74715;SDS011;63234;37.558;127.058;2023-12-04T02:32:57;1.40;;;1.25;;
74715;SDS011;63234;37.558;127.058;2023-12-04T02:35:24;2.13;;;1.67;;
74715;SDS011;63234;37.558;127.058;2023-12-04T02:37:54;2.97;;;2.65;;
74715;SDS011;63234;37.558;127.058;2023-12-04T02:40:20;3.38;;;3.08;;
74715;SDS011;63234;37.558;127.058;2023-12-04T02:42:46;3.15;;;1.80;;
74715;SDS011;63234;37.558;127.058;2023-12-04T02:45:11;2.38;;;1.33;;
74715;SDS011;63234;37.558;127.058;2023-12-04T02:47:37;2.55;;;2.35;;
74715;SDS011;63234;37.558;127.058;2023-12-04T02:50:02;2.58;;;2.38;;
74715;SDS011;63234;37.558;127.058;2023-12-04T02:52:28;6.35;;;3.67;;
74715;SDS011;63234;37.558;127.058;2023-12-04T02:54:53;2.08;;;1.90;;
74715;SDS011;63234;37.558;127.058;2023-12-04T02:57:18;1.58;;;1.48;;
74715;SDS011;63234;37.558;127.058;2023-12-04T02:59:45;5.35;;;2.17;;
74715;SDS011;63234;37.558;127.058;2023-12-04T03:02:10;6.55;;;2.92;;
74715;SDS011;63234;37.558;127.058;2023-12-04T03:04:35;2.85;;;1.98;;
74715;SDS011;63234;37.558;127.058;2023-12-04T03:07:01;4.00;;;3.38;;
74715;SDS011;63234;37.558;127.058;2023-12-04T03:09:26;2.22;;;2.03;;
74715;SDS011;63234;37.558;127.058;2023-12-04T03:11:52;9.02;;;3.25;;
74715;SDS011;63234;37.558;127.058;2023-12-04T03:14:17;3.38;;;1.58;;
74715;SDS011;63234;37.558;127.058;2023-12-04T03:16:43;3.72;;;2.00;;
74715;SDS011;63234;37.558;127.058;2023-12-04T03:19:08;3.67;;;2.45;;
74715;SDS011;63234;37.558;127.058;2023-12-04T03:21:33;1.88;;;1.77;;
74715;SDS011;63234;37.558;127.058;2023-12-04T03:23:59;3.53;;;2.53;;
74715;SDS011;63234;37.558;127.058;2023-12-04T03:26:24;3.75;;;2.97;;
74715;SDS011;63234;37.558;127.058;2023-12-04T03:28:50;2.72;;;2.47;;
74715;SDS011;63234;37.558;127.058;2023-12-04T03:31:15;2.83;;;2.47;;
74715;SDS011;63234;37.558;127.058;2023-12-04T03:33:41;4.05;;;2.17;;
74715;SDS011;63234;37.558;127.058;2023-12-04T03:36:06;6.32;;;3.15;;
74715;SDS011;63234;37.558;127.058;2023-12-04T03:38:32;3.72;;;2.97;;
74715;SDS011;63234;37.558;127.058;2023-12-04T03:40:57;8.98;;;4.03;;
74715;SDS011;63234;37.558;127.058;2023-12-04T03:43:23;2.88;;;2.58;;
74715;SDS011;63234;37.558;127.058;2023-12-04T03:45:48;4.75;;;3.72;;
74715;SDS011;63234;37.558;127.058;2023-12-04T03:48:13;4.15;;;2.15;;
74715;SDS011;63234;37.558;127.058;2023-12-04T03:50:39;4.05;;;1.95;;
74715;SDS011;63234;37.558;127.058;2023-12-04T03:53:04;1.45;;;1.35;;
74715;SDS011;63234;37.558;127.058;2023-12-04T03:55:29;3.95;;;2.80;;
74715;SDS011;63234;37.558;127.058;2023-12-04T03:57:55;6.15;;;4.75;;
74715;SDS011;63234;37.558;127.058;2023-12-04T04:00:21;1.58;;;1.48;;
74715;SDS011;63234;37.558;127.058;2023-12-04T04:02:48;5.47;;;3.38;;
74715;SDS011;63234;37.558;127.058;2023-12-04T04:05:14;6.18;;;3.55;;
74715;SDS011;63234;37.558;127.058;2023-12-04T04:07:39;3.90;;;2.58;;
74715;SDS011;63234;37.558;127.058;2023-12-04T04:10:05;5.95;;;2.30;;
74715;SDS011;63234;37.558;127.058;2023-12-04T04:12:31;3.50;;;2.38;;
74715;SDS011;63234;37.558;127.058;2023-12-04T04:14:57;7.20;;;3.78;;
74715;SDS011;63234;37.558;127.058;2023-12-04T04:17:22;5.43;;;1.88;;
74715;SDS011;63234;37.558;127.058;2023-12-04T04:19:50;6.47;;;3.17;;
74715;SDS011;63234;37.558;127.058;2023-12-04T04:22:16;2.85;;;2.28;;
74715;SDS011;63234;37.558;127.058;2023-12-04T04:24:42;4.38;;;3.38;;
74715;SDS011;63234;37.558;127.058;2023-12-04T04:27:07;1.77;;;1.50;;
74715;SDS011;63234;37.558;127.058;2023-12-04T04:29:32;5.43;;;3.25;;
74715;SDS011;63234;37.558;127.058;2023-12-04T04:31:58;4.18;;;2.75;;
74715;SDS011;63234;37.558;127.058;2023-12-04T04:34:23;5.05;;;3.47;;
74715;SDS011;63234;37.558;127.058;2023-12-04T04:36:49;4.22;;;3.90;;
74715;SDS011;63234;37.558;127.058;2023-12-04T04:39:14;11.27;;;4.90;;
74715;SDS011;63234;37.558;127.058;2023-12-04T04:41:40;4.45;;;2.97;;
74715;SDS011;63234;37.558;127.058;2023-12-04T04:44:06;5.85;;;2.33;;
74715;SDS011;63234;37.558;127.058;2023-12-04T04:46:31;7.07;;;3.40;;
74715;SDS011;63234;37.558;127.058;2023-12-04T04:48:57;7.22;;;2.83;;
74715;SDS011;63234;37.558;127.058;2023-12-04T04:51:22;7.55;;;4.03;;
74715;SDS011;63234;37.558;127.058;2023-12-04T04:53:47;7.50;;;3.92;;
74715;SDS011;63234;37.558;127.058;2023-12-04T04:56:13;4.88;;;4.45;;
74715;SDS011;63234;37.558;127.058;2023-12-04T04:58:39;2.47;;;1.92;;
74715;SDS011;63234;37.558;127.058;2023-12-04T05:01:04;3.28;;;2.97;;
74715;SDS011;63234;37.558;127.058;2023-12-04T05:03:30;4.35;;;2.65;;
74715;SDS011;63234;37.558;127.058;2023-12-04T05:05:55;3.38;;;2.17;;
74715;SDS011;63234;37.558;127.058;2023-12-04T05:08:20;7.80;;;3.13;;
74715;SDS011;63234;37.558;127.058;2023-12-04T05:10:46;3.60;;;3.08;;
74715;SDS011;63234;37.558;127.058;2023-12-04T05:13:11;11.02;;;3.50;;
74715;SDS011;63234;37.558;127.058;2023-12-04T05:15:36;3.85;;;2.85;;
74715;SDS011;63234;37.558;127.058;2023-12-04T05:18:02;2.40;;;1.52;;
74715;SDS011;63234;37.558;127.058;2023-12-04T05:20:27;2.95;;;2.28;;
74715;SDS011;63234;37.558;127.058;2023-12-04T05:22:52;4.38;;;1.95;;
74715;SDS011;63234;37.558;127.058;2023-12-04T05:25:18;3.03;;;2.58;;
74715;SDS011;63234;37.558;127.058;2023-12-04T05:27:43;2.05;;;1.85;;
74715;SDS011;63234;37.558;127.058;2023-12-04T05:30:08;3.60;;;3.10;;
74715;SDS011;63234;37.558;127.058;2023-12-04T05:32:34;5.80;;;3.72;;
74715;SDS011;63234;37.558;127.058;2023-12-04T05:35:00;3.58;;;1.73;;
74715;SDS011;63234;37.558;127.058;2023-12-04T05:37:25;3.78;;;2.92;;
74715;SDS011;63234;37.558;127.058;2023-12-04T05:39:50;3.22;;;2.75;;
74715;SDS011;63234;37.558;127.058;2023-12-04T05:42:16;3.20;;;2.08;;
74715;SDS011;63234;37.558;127.058;2023-12-04T05:44:41;4.95;;;3.13;;
74715;SDS011;63234;37.558;127.058;2023-12-04T05:47:06;1.65;;;1.23;;
74715;SDS011;63234;37.558;127.058;2023-12-04T05:49:33;4.07;;;2.45;;
74715;SDS011;63234;37.558;127.058;2023-12-04T05:51:58;2.63;;;1.90;;
74715;SDS011;63234;37.558;127.058;2023-12-04T05:54:23;4.95;;;2.17;;
74715;SDS011;63234;37.558;127.058;2023-12-04T05:56:49;1.52;;;1.42;;
74715;SDS011;63234;37.558;127.058;2023-12-04T05:59:15;1.38;;;1.25;;
74715;SDS011;63234;37.558;127.058;2023-12-04T06:01:40;3.47;;;2.13;;
74715;SDS011;63234;37.558;127.058;2023-12-04T06:04:06;2.78;;;1.83;;
74715;SDS011;63234;37.558;127.058;2023-12-04T06:06:31;3.63;;;1.95;;
74715;SDS011;63234;37.558;127.058;2023-12-04T06:08:56;3.58;;;2.05;;
74715;SDS011;63234;37.558;127.058;2023-12-04T06:11:21;2.13;;;1.67;;
74715;SDS011;63234;37.558;127.058;2023-12-04T06:13:47;3.70;;;2.88;;
74715;SDS011;63234;37.558;127.058;2023-12-04T06:16:12;3.00;;;2.15;;
74715;SDS011;63234;37.558;127.058;2023-12-04T06:18:38;2.17;;;1.98;;
74715;SDS011;63234;37.558;127.058;2023-12-04T06:21:03;2.83;;;2.33;;
74715;SDS011;63234;37.558;127.058;2023-12-04T06:23:29;3.30;;;2.25;;
74715;SDS011;63234;37.558;127.058;2023-12-04T06:25:55;6.80;;;3.55;;
74715;SDS011;63234;37.558;127.058;2023-12-04T06:28:20;2.35;;;1.67;;
74715;SDS011;63234;37.558;127.058;2023-12-04T06:30:46;3.97;;;2.72;;
74715;SDS011;63234;37.558;127.058;2023-12-04T06:33:11;10.55;;;2.90;;
74715;SDS011;63234;37.558;127.058;2023-12-04T06:35:39;2.80;;;1.70;;
74715;SDS011;63234;37.558;127.058;2023-12-04T06:38:06;4.78;;;4.35;;
74715;SDS011;63234;37.558;127.058;2023-12-04T06:40:32;6.07;;;2.40;;
74715;SDS011;63234;37.558;127.058;2023-12-04T06:42:58;5.40;;;3.17;;
74715;SDS011;63234;37.558;127.058;2023-12-04T06:45:24;5.57;;;3.25;;
74715;SDS011;63234;37.558;127.058;2023-12-04T06:47:50;6.85;;;3.65;;
74715;SDS011;63234;37.558;127.058;2023-12-04T06:50:16;5.75;;;3.55;;
74715;SDS011;63234;37.558;127.058;2023-12-04T06:52:42;6.63;;;3.33;;
74715;SDS011;63234;37.558;127.058;2023-12-04T06:55:08;17.90;;;5.22;;
74715;SDS011;63234;37.558;127.058;2023-12-04T06:57:33;3.10;;;2.83;;
74715;SDS011;63234;37.558;127.058;2023-12-04T06:59:59;3.78;;;2.30;;
74715;SDS011;63234;37.558;127.058;2023-12-04T07:02:24;5.65;;;3.28;;
74715;SDS011;63234;37.558;127.058;2023-12-04T07:04:49;9.27;;;4.55;;
74715;SDS011;63234;37.558;127.058;2023-12-04T07:07:15;12.18;;;3.33;;
74715;SDS011;63234;37.558;127.058;2023-12-04T07:09:40;6.68;;;4.53;;
74715;SDS011;63234;37.558;127.058;2023-12-04T07:12:06;7.45;;;3.65;;
74715;SDS011;63234;37.558;127.058;2023-12-04T07:14:31;4.93;;;3.92;;
74715;SDS011;63234;37.558;127.058;2023-12-04T07:16:57;4.25;;;3.03;;
74715;SDS011;63234;37.558;127.058;2023-12-04T07:19:22;7.55;;;4.78;;
74715;SDS011;63234;37.558;127.058;2023-12-04T07:21:48;6.78;;;5.00;;
74715;SDS011;63234;37.558;127.058;2023-12-04T07:24:13;4.70;;;3.25;;
74715;SDS011;63234;37.558;127.058;2023-12-04T07:26:38;9.75;;;4.32;;
74715;SDS011;63234;37.558;127.058;2023-12-04T07:29:04;5.05;;;4.18;;
74715;SDS011;63234;37.558;127.058;2023-12-04T07:31:29;4.13;;;3.28;;
74715;SDS011;63234;37.558;127.058;2023-12-04T07:33:55;6.90;;;4.18;;
74715;SDS011;63234;37.558;127.058;2023-12-04T07:36:21;4.63;;;3.70;;
74715;SDS011;63234;37.558;127.058;2023-12-04T07:38:47;6.13;;;4.50;;
74715;SDS011;63234;37.558;127.058;2023-12-04T07:41:13;5.15;;;3.22;;
74715;SDS011;63234;37.558;127.058;2023-12-04T07:43:39;5.18;;;3.97;;
74715;SDS011;63234;37.558;127.058;2023-12-04T07:46:04;8.38;;;4.85;;
74715;SDS011;63234;37.558;127.058;2023-12-04T07:48:30;7.07;;;3.25;;
74715;SDS011;63234;37.558;127.058;2023-12-04T07:50:56;4.75;;;3.72;;
74715;SDS011;63234;37.558;127.058;2023-12-04T07:53:22;5.05;;;3.15;;
74715;SDS011;63234;37.558;127.058;2023-12-04T07:55:47;3.97;;;3.38;;
74715;SDS011;63234;37.558;127.058;2023-12-04T07:58:16;10.13;;;3.08;;
74715;SDS011;63234;37.558;127.058;2023-12-04T08:00:41;7.50;;;4.68;;
74715;SDS011;63234;37.558;127.058;2023-12-04T08:03:07;7.97;;;4.35;;
74715;SDS011;63234;37.558;127.058;2023-12-04T08:05:32;19.52;;;3.75;;
74715;SDS011;63234;37.558;127.058;2023-12-04T08:07:57;4.05;;;3.22;;
74715;SDS011;63234;37.558;127.058;2023-12-04T08:10:23;11.50;;;3.33;;
74715;SDS011;63234;37.558;127.058;2023-12-04T08:12:48;4.40;;;3.47;;
74715;SDS011;63234;37.558;127.058;2023-12-04T08:15:13;10.88;;;5.40;;
74715;SDS011;63234;37.558;127.058;2023-12-04T08:17:39;4.85;;;3.28;;
74715;SDS011;63234;37.558;127.058;2023-12-04T08:20:04;6.40;;;4.30;;
74715;SDS011;63234;37.558;127.058;2023-12-04T08:22:31;4.22;;;3.83;;
74715;SDS011;63234;37.558;127.058;2023-12-04T08:24:56;4.35;;;3.13;;
74715;SDS011;63234;37.558;127.058;2023-12-04T08:27:23;12.13;;;5.20;;
74715;SDS011;63234;37.558;127.058;2023-12-04T08:29:49;6.03;;;4.28;;
74715;SDS011;63234;37.558;127.058;2023-12-04T08:32:14;6.57;;;4.38;;
74715;SDS011;63234;37.558;127.058;2023-12-04T08:34:39;4.75;;;3.72;;
74715;SDS011;63234;37.558;127.058;2023-12-04T08:37:05;5.18;;;3.78;;
74715;SDS011;63234;37.558;127.058;2023-12-04T08:39:30;6.18;;;5.10;;
74715;SDS011;63234;37.558;127.058;2023-12-04T08:41:55;8.85;;;5.25;;
74715;SDS011;63234;37.558;127.058;2023-12-04T08:44:21;5.60;;;2.90;;
74715;SDS011;63234;37.558;127.058;2023-12-04T08:46:46;5.97;;;4.53;;
74715;SDS011;63234;37.558;127.058;2023-12-04T08:49:11;4.75;;;3.28;;
74715;SDS011;63234;37.558;127.058;2023-12-04T08:51:37;4.18;;;3.40;;
74715;SDS011;63234;37.558;127.058;2023-12-04T08:54:02;7.45;;;4.30;;
74715;SDS011;63234;37.558;127.058;2023-12-04T08:56:28;11.57;;;5.72;;
74715;SDS011;63234;37.558;127.058;2023-12-04T08:58:54;6.07;;;4.10;;
74715;SDS011;63234;37.558;127.058;2023-12-04T09:01:19;7.68;;;4.25;;
74715;SDS011;63234;37.558;127.058;2023-12-04T09:03:45;6.88;;;2.75;;
74715;SDS011;63234;37.558;127.058;2023-12-04T09:06:10;6.55;;;4.65;;
74715;SDS011;63234;37.558;127.058;2023-12-04T09:08:36;5.22;;;3.08;;
74715;SDS011;63234;37.558;127.058;2023-12-04T09:11:01;8.07;;;4.90;;
74715;SDS011;63234;37.558;127.058;2023-12-04T09:13:28;10.15;;;5.75;;
74715;SDS011;63234;37.558;127.058;2023-12-04T09:15:55;12.40;;;5.35;;
74715;SDS011;63234;37.558;127.058;2023-12-04T09:18:20;12.80;;;4.68;;
74715;SDS011;63234;37.558;127.058;2023-12-04T09:20:45;10.65;;;5.15;;
74715;SDS011;63234;37.558;127.058;2023-12-04T09:23:11;5.93;;;3.60;;
74715;SDS011;63234;37.558;127.058;2023-12-04T09:25:37;5.75;;;3.92;;
74715;SDS011;63234;37.558;127.058;2023-12-04T09:28:02;7.88;;;4.88;;
74715;SDS011;63234;37.558;127.058;2023-12-04T09:30:28;8.50;;;6.05;;
74715;SDS011;63234;37.558;127.058;2023-12-04T09:32:53;13.13;;;5.25;;
74715;SDS011;63234;37.558;127.058;2023-12-04T09:35:19;10.10;;;5.63;;
74715;SDS011;63234;37.558;127.058;2023-12-04T09:37:44;11.90;;;5.10;;
74715;SDS011;63234;37.558;127.058;2023-12-04T09:40:11;10.90;;;6.45;;
74715;SDS011;63234;37.558;127.058;2023-12-04T09:42:37;9.23;;;5.70;;
74715;SDS011;63234;37.558;127.058;2023-12-04T09:45:05;9.45;;;4.45;;
74715;SDS011;63234;37.558;127.058;2023-12-04T09:47:32;11.10;;;4.90;;
74715;SDS011;63234;37.558;127.058;2023-12-04T09:49:58;12.50;;;6.10;;
74715;SDS011;63234;37.558;127.058;2023-12-04T09:52:26;10.48;;;5.72;;
74715;SDS011;63234;37.558;127.058;2023-12-04T09:54:52;5.65;;;3.90;;
74715;SDS011;63234;37.558;127.058;2023-12-04T09:57:18;15.35;;;4.70;;
74715;SDS011;63234;37.558;127.058;2023-12-04T09:59:44;10.02;;;4.97;;
74715;SDS011;63234;37.558;127.058;2023-12-04T10:02:10;10.02;;;4.55;;
74715;SDS011;63234;37.558;127.058;2023-12-04T10:04:36;4.90;;;4.43;;
74715;SDS011;63234;37.558;127.058;2023-12-04T10:07:02;5.15;;;4.18;;
74715;SDS011;63234;37.558;127.058;2023-12-04T10:09:28;18.10;;;7.00;;
74715;SDS011;63234;37.558;127.058;2023-12-04T10:11:55;10.75;;;6.38;;
74715;SDS011;63234;37.558;127.058;2023-12-04T10:14:21;5.57;;;4.53;;
74715;SDS011;63234;37.558;127.058;2023-12-04T10:16:47;7.03;;;4.72;;
74715;SDS011;63234;37.558;127.058;2023-12-04T10:21:39;10.85;;;5.72;;
74715;SDS011;63234;37.558;127.058;2023-12-04T10:24:04;9.70;;;5.05;;
74715;SDS011;63234;37.558;127.058;2023-12-04T10:26:30;9.00;;;4.47;;
74715;SDS011;63234;37.558;127.058;2023-12-04T10:28:59;11.07;;;4.97;;
74715;SDS011;63234;37.558;127.058;2023-12-04T10:31:26;7.28;;;5.05;;
74715;SDS011;63234;37.558;127.058;2023-12-04T10:33:51;16.17;;;4.55;;
74715;SDS011;63234;37.558;127.058;2023-12-04T10:36:17;4.90;;;3.72;;
74715;SDS011;63234;37.558;127.058;2023-12-04T10:38:44;8.23;;;5.32;;
74715;SDS011;63234;37.558;127.058;2023-12-04T10:41:12;8.30;;;5.72;;
74715;SDS011;63234;37.558;127.058;2023-12-04T10:43:46;10.43;;;6.57;;
74715;SDS011;63234;37.558;127.058;2023-12-04T10:46:13;9.13;;;4.93;;
74715;SDS011;63234;37.558;127.058;2023-12-04T10:48:41;7.50;;;4.47;;
74715;SDS011;63234;37.558;127.058;2023-12-04T10:51:09;9.13;;;5.57;;
74715;SDS011;63234;37.558;127.058;2023-12-04T10:53:37;10.95;;;5.53;;
74715;SDS011;63234;37.558;127.058;2023-12-04T10:56:04;13.38;;;5.88;;
74715;SDS011;63234;37.558;127.058;2023-12-04T10:58:30;9.60;;;4.95;;
74715;SDS011;63234;37.558;127.058;2023-12-04T11:00:56;9.27;;;5.70;;
74715;SDS011;63234;37.558;127.058;2023-12-04T11:03:28;15.25;;;7.18;;
74715;SDS011;63234;37.558;127.058;2023-12-04T11:06:00;6.20;;;4.38;;
74715;SDS011;63234;37.558;127.058;2023-12-04T11:08:31;11.82;;;6.13;;
74715;SDS011;63234;37.558;127.058;2023-12-04T11:10:59;12.68;;;6.43;;
74715;SDS011;63234;37.558;127.058;2023-12-04T11:13:34;7.78;;;4.88;;
74715;SDS011;63234;37.558;127.058;2023-12-04T11:16:05;13.57;;;5.72;;
74715;SDS011;63234;37.558;127.058;2023-12-04T11:18:36;7.43;;;5.63;;
74715;SDS011;63234;37.558;127.058;2023-12-04T11:21:12;6.72;;;4.82;;
74715;SDS011;63234;37.558;127.058;2023-12-04T11:23:38;10.02;;;6.40;;
74715;SDS011;63234;37.558;127.058;2023-12-04T11:26:04;17.70;;;5.97;;
74715;SDS011;63234;37.558;127.058;2023-12-04T11:28:32;9.38;;;6.15;;
74715;SDS011;63234;37.558;127.058;2023-12-04T11:30:59;11.48;;;6.47;;
74715;SDS011;63234;37.558;127.058;2023-12-04T11:33:26;6.55;;;3.85;;
74715;SDS011;63234;37.558;127.058;2023-12-04T11:35:51;9.68;;;6.15;;
74715;SDS011;63234;37.558;127.058;2023-12-04T11:38:17;9.85;;;7.05;;
74715;SDS011;63234;37.558;127.058;2023-12-04T11:40:42;10.05;;;5.50;;
74715;SDS011;63234;37.558;127.058;2023-12-04T11:43:27;8.40;;;5.22;;
74715;SDS011;63234;37.558;127.058;2023-12-04T11:46:06;4.82;;;3.60;;
74715;SDS011;63234;37.558;127.058;2023-12-04T11:48:33;4.07;;;3.47;;
74715;SDS011;63234;37.558;127.058;2023-12-04T11:50:59;10.15;;;6.40;;
74715;SDS011;63234;37.558;127.058;2023-12-04T11:53:25;8.00;;;4.25;;
74715;SDS011;63234;37.558;127.058;2023-12-04T11:55:50;11.98;;;5.28;;
74715;SDS011;63234;37.558;127.058;2023-12-04T11:58:21;9.88;;;5.78;;
74715;SDS011;63234;37.558;127.058;2023-12-04T12:00:47;12.02;;;5.43;;
74715;SDS011;63234;37.558;127.058;2023-12-04T12:03:14;3.25;;;2.67;;
74715;SDS011;63234;37.558;127.058;2023-12-04T12:05:40;8.70;;;4.80;;
74715;SDS011;63234;37.558;127.058;2023-12-04T12:08:06;10.68;;;5.15;;
74715;SDS011;63234;37.558;127.058;2023-12-04T12:10:33;11.35;;;5.78;;
74715;SDS011;63234;37.558;127.058;2023-12-04T12:12:59;10.93;;;6.32;;
74715;SDS011;63234;37.558;127.058;2023-12-04T12:15:25;6.07;;;3.83;;
74715;SDS011;63234;37.558;127.058;2023-12-04T12:17:50;9.45;;;5.78;;
74715;SDS011;63234;37.558;127.058;2023-12-04T12:20:16;9.38;;;4.95;;
74715;SDS011;63234;37.558;127.058;2023-12-04T12:22:42;9.85;;;3.92;;
74715;SDS011;63234;37.558;127.058;2023-12-04T12:25:11;9.55;;;5.20;;
74715;SDS011;63234;37.558;127.058;2023-12-04T12:27:37;5.47;;;4.78;;
74715;SDS011;63234;37.558;127.058;2023-12-04T12:30:03;6.88;;;4.40;;
74715;SDS011;63234;37.558;127.058;2023-12-04T12:32:38;13.18;;;4.78;;
74715;SDS011;63234;37.558;127.058;2023-12-04T12:35:04;7.43;;;3.88;;
74715;SDS011;63234;37.558;127.058;2023-12-04T12:37:29;8.15;;;6.05;;
74715;SDS011;63234;37.558;127.058;2023-12-04T12:39:55;11.18;;;6.07;;
74715;SDS011;63234;37.558;127.058;2023-12-04T12:42:23;9.13;;;4.82;;
74715;SDS011;63234;37.558;127.058;2023-12-04T12:44:55;12.38;;;6.13;;
74715;SDS011;63234;37.558;127.058;2023-12-04T12:47:24;8.02;;;4.57;;
74715;SDS011;63234;37.558;127.058;2023-12-04T12:49:50;6.60;;;4.57;;
74715;SDS011;63234;37.558;127.058;2023-12-04T12:52:15;12.00;;;6.78;;
74715;SDS011;63234;37.558;127.058;2023-12-04T12:54:41;7.93;;;4.85;;
74715;SDS011;63234;37.558;127.058;2023-12-04T12:57:07;11.90;;;5.00;;
74715;SDS011;63234;37.558;127.058;2023-12-04T12:59:34;9.82;;;5.10;;
74715;SDS011;63234;37.558;127.058;2023-12-04T13:02:00;10.48;;;5.05;;
74715;SDS011;63234;37.558;127.058;2023-12-04T13:04:26;11.00;;;5.07;;
74715;SDS011;63234;37.558;127.058;2023-12-04T13:06:58;10.70;;;6.30;;
74715;SDS011;63234;37.558;127.058;2023-12-04T13:09:23;9.95;;;5.15;;
74715;SDS011;63234;37.558;127.058;2023-12-04T13:11:49;8.75;;;4.95;;
74715;SDS011;63234;37.558;127.058;2023-12-04T13:14:16;9.30;;;5.20;;
74715;SDS011;63234;37.558;127.058;2023-12-04T13:16:42;9.98;;;6.05;;
74715;SDS011;63234;37.558;127.058;2023-12-04T13:19:07;8.23;;;5.43;;
74715;SDS011;63234;37.558;127.058;2023-12-04T13:21:32;11.07;;;6.05;;
74715;SDS011;63234;37.558;127.058;2023-12-04T13:23:58;6.55;;;4.50;;
74715;SDS011;63234;37.558;127.058;2023-12-04T13:26:24;7.82;;;3.70;;
74715;SDS011;63234;37.558;127.058;2023-12-04T13:28:49;7.72;;;4.38;;
74715;SDS011;63234;37.558;127.058;2023-12-04T13:31:14;9.98;;;5.53;;
74715;SDS011;63234;37.558;127.058;2023-12-04T13:33:40;10.40;;;3.70;;
74715;SDS011;63234;37.558;127.058;2023-12-04T13:36:08;8.50;;;4.80;;
74715;SDS011;63234;37.558;127.058;2023-12-04T13:38:34;6.72;;;3.70;;
74715;SDS011;63234;37.558;127.058;2023-12-04T13:41:00;12.30;;;5.35;;
74715;SDS011;63234;37.558;127.058;2023-12-04T13:43:34;8.50;;;4.45;;
74715;SDS011;63234;37.558;127.058;2023-12-04T13:46:18;9.52;;;5.32;;
74715;SDS011;63234;37.558;127.058;2023-12-04T13:48:43;9.20;;;5.80;;
74715;SDS011;63234;37.558;127.058;2023-12-04T13:51:09;7.32;;;3.92;;
74715;SDS011;63234;37.558;127.058;2023-12-04T13:53:36;7.07;;;5.35;;
74715;SDS011;63234;37.558;127.058;2023-12-04T13:56:05;8.10;;;5.53;;
74715;SDS011;63234;37.558;127.058;2023-12-04T13:58:46;7.93;;;5.40;;
74715;SDS011;63234;37.558;127.058;2023-12-04T14:01:15;7.35;;;4.32;;
74715;SDS011;63234;37.558;127.058;2023-12-04T14:03:43;9.65;;;5.00;;
74715;SDS011;63234;37.558;127.058;2023-12-04T14:06:09;11.80;;;4.45;;
74715;SDS011;63234;37.558;127.058;2023-12-04T14:08:35;6.53;;;4.28;;
74715;SDS011;63234;37.558;127.058;2023-12-04T14:11:03;10.75;;;6.30;;
74715;SDS011;63234;37.558;127.058;2023-12-04T14:13:29;7.30;;;4.75;;
74715;SDS011;63234;37.558;127.058;2023-12-04T14:15:57;12.55;;;5.40;;